• Join FlightAware (Why Join?)
  • Login
  • US Flag 
01:18AM EDT


 

Airport Tracker/Info


-or-


 

Live Flight TrackerFlight Track Log ✈ AAY843 ✈ 19-Jun-2014 ✈ KSYR - KPIE

Flight Track Log - Related Links

Times and Time Zones

All times are in EDT time to prevent confusion due to time zone crossing. See the AAY843 flight status page for this flight to view local times or setup timezone preferences in your user account.

Time Position Orientation Groundspeed Altitude Reporting Facility
EDT Latitude Longitude Course Direction KTS MPH feet Rate Location/Type
10:32AM 43.1075 -76.1333 263° West 156 180 1,100  Level Boston Center
10:33AM 43.1053 -76.1589 263° West 174 200 1,900 2,100 Climbing Boston Center
10:34AM 43.0628 -76.2211 227° Southwest 241 277 4,100 1,860 Climbing Boston Center
10:34AM 43.0300 -76.2456 209° Southwest 292 336 4,900 2,340 Climbing Boston Center
10:35AM 42.9631 -76.3042 213° Southwest 284 327 7,800 2,580 Climbing Boston Center
10:36AM 42.8931 -76.3622 211° Southwest 291 335 10,300 1,800 Climbing Boston Center
10:37AM 42.8128 -76.4286 211° Southwest 333 383 11,600 1,500 Climbing Boston Center
10:38AM 42.7208 -76.5081 212° Southwest 380 437 13,400 2,100 Climbing Boston Center
10:39AM 42.6244 -76.5886 212° Southwest 403 464 15,900 1,680 Climbing Boston Center
10:40AM 42.5250 -76.6708 211° Southwest 413 475 16,900 480 Climbing Boston Center
10:41AM 42.4222 -76.7444 208° Southwest 418 481 17,000 1,140 Climbing Boston Center
10:42AM 42.2783 -76.7472 181° South 429 494 19,200 1,980 Climbing Boston Center
10:43AM 42.1547 -76.7511 181° South 436 502 21,100 1,860 Climbing Boston Center
10:44AM 42.0308 -76.7550 181° South 440 506 23,100 1,920 Climbing Boston Center
10:45AM 41.9208 -76.7581 181° South 440 506 25,100 1,380 Climbing Boston Center
10:46AM 41.7986 -76.7619 181° South 439 505 25,900 1,080 Climbing Boston Center
10:48AM 41.6553 -76.7678 182° South 448 516 27,400 1,440 Climbing New York Center
10:49AM 41.5261 -76.7700 181° South 460 529 28,900 1,500 Climbing New York Center
10:50AM 41.3861 -76.7769 182° South 465 535 30,500 1,260 Climbing New York Center
10:51AM 41.2644 -76.7964 187° South 460 529 31,400 720 Climbing New York Center
10:52AM 41.1436 -76.8353 194° South 455 524 32,000 240 Climbing New York Center
10:53AM 41.0208 -76.8711 192° South 449 517 32,000  Level New York Center
10:54AM 40.9089 -76.9022 192° South 460 529 32,000  Level New York Center
10:55AM 40.7864 -76.9353 192° South 460 529 32,000  Level New York Center
10:56AM 40.6636 -76.9708 192° South 455 524 32,000  Level New York Center
10:57AM 40.5408 -77.0061 192° South 455 524 32,000  Level New York Center
10:58AM 40.4158 -77.0411 192° South 455 524 32,000  Level New York Center
10:59AM 40.2931 -77.0764 192° South 455 524 32,000  Level New York Center
11:00AM 40.1733 -77.1333 200° South 455 524 32,000  Level New York Center
11:01AM 39.9692 -77.2292 200° South 459 528 32,000  Level Washington Center
11:02AM 39.8517 -77.2889 201° Southwest 459 528 32,000  Level Washington Center
11:03AM 39.7364 -77.3453 201° Southwest 453 521 32,000  Level Washington Center
11:04AM 39.6167 -77.4044 201° Southwest 453 521 32,000  Level Washington Center
11:06AM 39.3753 -77.5192 200° South 459 528 32,000  Level Washington Center
11:07AM 39.2533 -77.5778 200° South 459 528 32,000  Level Washington Center
11:08AM 39.1317 -77.6358 200° South 464 534 32,000  Level Washington Center
11:09AM 38.9992 -77.6964 200° South 470 541 32,000  Level Washington Center
11:10AM 38.8772 -77.7517 199° South 476 548 32,000  Level Washington Center
11:11AM 38.7533 -77.8144 202° Southwest 477 549 32,000  Level Washington Center
11:12AM 38.6333 -77.8692 200° South 472 543 32,000  Level Washington Center
11:13AM 38.5133 -77.9267 201° Southwest 472 543 32,000  Level Washington Center
11:14AM 38.3914 -77.9839 200° South 472 543 32,000  Level Washington Center
11:15AM 38.2692 -78.0381 199° South 472 543 32,000  Level Washington Center
11:16AM 38.1450 -78.0975 201° Southwest 472 543 32,000  Level Washington Center
11:17AM 38.0292 -78.1489 199° South 472 543 32,000  Level Washington Center
11:18AM 37.9181 -78.1844 194° South 467 537 32,000  Level Washington Center
11:19AM 37.7919 -78.2222 193° South 467 537 32,000  Level Washington Center
11:20AM 37.6639 -78.2597 193° South 467 537 32,000  Level Washington Center
11:21AM 37.5358 -78.2972 193° South 467 537 32,000  Level Washington Center
11:22AM 37.4078 -78.3372 194° South 472 543 32,000  Level Washington Center
11:23AM 37.2794 -78.3742 193° South 472 543 32,000  Level Washington Center
11:24AM 37.1389 -78.4133 193° South 472 543 32,000  Level Washington Center
11:25AM 37.0086 -78.4531 194° South 472 543 32,000  Level Washington Center
11:26AM 36.8806 -78.4922 194° South 477 549 32,000  Level Washington Center
11:27AM 36.7503 -78.5289 193° South 477 549 32,000  Level Washington Center
11:28AM 36.6386 -78.5686 196° South 466 536 32,000  Level Washington Center
11:29AM 36.5103 -78.6103 195° South 472 543 32,000  Level Washington Center
11:30AM 36.3936 -78.6883 208° Southwest 477 549 32,000  Level Washington Center
11:31AM 36.2744 -78.7739 210° Southwest 484 557 32,000  Level Washington Center
11:32AM 36.1594 -78.8567 210° Southwest 484 557 32,000  Level Washington Center
11:33AM 36.0447 -78.9367 209° Southwest 489 563 32,000  Level Washington Center
11:34AM 35.9319 -79.0142 209° Southwest 479 551 32,000  Level Washington Center
11:35AM 35.8169 -79.0936 209° Southwest 479 551 32,000  Level Washington Center
11:36AM 35.6911 -79.1803 209° Southwest 479 551 32,000  Level Washington Center
11:37AM 35.5825 -79.2569 210° Southwest 473 544 32,000  Level Washington Center
11:38AM 35.4822 -79.3264 209° Southwest 465 535 32,000  Level Washington Center
11:39AM 35.3544 -79.4119 209° Southwest 465 535 32,000  Level Washington Center
11:40AM 35.2433 -79.4906 210° Southwest 470 541 32,000  Level Washington Center
11:42AM 35.0661 -79.6108 209° Southwest 467 537 32,000  Level Jacksonville Center
11:43AM 34.9556 -79.6861 209° Southwest 467 537 32,000  Level Jacksonville Center
11:44AM 34.8428 -79.7611 209° Southwest 467 537 32,000  Level Jacksonville Center
11:45AM 34.7297 -79.8361 209° Southwest 462 532 32,000  Level Jacksonville Center
11:46AM 34.6169 -79.9156 210° Southwest 467 537 32,000  Level Jacksonville Center
11:47AM 34.5061 -79.9875 208° Southwest 467 537 32,000  Level Jacksonville Center
11:48AM 34.4136 -80.0561 211° Southwest 450 518 32,000  Level Jacksonville Center
11:49AM 34.3008 -80.1328 209° Southwest 456 525 32,000  Level Jacksonville Center
11:50AM 34.1917 -80.2064 209° Southwest 456 525 32,000 -60 Level Jacksonville Center
11:51AM 34.0661 -80.2906 209° Southwest 456 525 31,900  Descending Jacksonville Center
11:52AM 33.9550 -80.3614 208° Southwest 456 525 32,000  Climbing Jacksonville Center
11:53AM 33.8439 -80.4369 209° Southwest 456 525 32,000 -60 Level Jacksonville Center
11:54AM 33.7347 -80.5125 210° Southwest 456 525 31,900  Descending Jacksonville Center
11:55AM 33.6211 -80.5856 208° Southwest 456 525 32,000  Climbing Jacksonville Center
11:56AM 33.5058 -80.6608 209° Southwest 456 525 32,000 -60 Level Jacksonville Center
11:57AM 33.3942 -80.7331 208° Southwest 456 525 31,900  Descending Jacksonville Center
11:58AM 33.2808 -80.8081 209° Southwest 462 532 32,000  Climbing Jacksonville Center
11:59AM 33.1672 -80.8825 209° Southwest 462 532 32,000  Level Jacksonville Center
12:00PM 33.0556 -80.9544 208° Southwest 462 532 32,000 -60 Level Jacksonville Center
12:01PM 32.9397 -81.0264 208° Southwest 467 537 31,900  Descending Jacksonville Center
12:02PM 32.8281 -81.1003 209° Southwest 467 537 32,000  Climbing Jacksonville Center
12:03PM 32.7144 -81.1742 209° Southwest 467 537 32,000  Level Jacksonville Center
12:04PM 32.6150 -81.2400 209° Southwest 462 532 32,000  Level Jacksonville Center
12:05PM 32.4886 -81.3211 208° Southwest 462 532 32,000  Level Jacksonville Center
12:06PM 32.3853 -81.3894 209° Southwest 467 537 32,000  Level Jacksonville Center
12:07PM 32.2567 -81.4678 207° Southwest 472 543 32,000  Level Jacksonville Center
12:08PM 32.1383 -81.5408 208° Southwest 465 535 32,000  Level Jacksonville Center
12:09PM 32.0219 -81.5792 196° South 475 547 32,000  Level Jacksonville Center
12:10PM 31.9053 -81.6125 194° South 475 547 32,000  Level Jacksonville Center
12:11PM 31.7533 -81.6636 196° South 481 554 32,000  Level Jacksonville Center
12:12PM 31.6389 -81.7017 196° South 474 545 32,000  Level Jacksonville Center
12:13PM 31.4975 -81.7475 195° South 479 551 32,000  Level Jacksonville Center
12:14PM 31.3703 -81.7878 195° South 474 545 32,000  Level Jacksonville Center
12:15PM 31.2539 -81.8331 198° South 474 545 32,000 -60 Level Jacksonville Center
12:16PM 31.1269 -81.8708 194° South 474 545 31,900  Descending Jacksonville Center
12:17PM 30.9997 -81.9111 195° South 474 545 32,000  Climbing Jacksonville Center
12:18PM 30.8747 -81.9511 195° South 474 545 32,000  Level Jacksonville Center
12:19PM 30.7478 -81.9908 195° South 474 545 32,000 -60 Level Jacksonville Center
12:20PM 30.6206 -82.0333 196° South 474 545 31,900  Descending Jacksonville Center
12:21PM 30.4956 -82.0681 193° South 474 545 32,000  Climbing Jacksonville Center
12:22PM 30.3686 -82.1078 195° South 469 540 31,900  Descending Jacksonville Center
12:23PM 30.2433 -82.1472 195° South 474 545 32,000  Climbing Jacksonville Center
12:24PM 30.1164 -82.1889 196° South 474 545 32,000 -300 Level Jacksonville Center
12:25PM 29.9767 -82.2381 197° South 474 545 31,400 -1,140 Descending Jacksonville Center
12:26PM 29.8475 -82.2794 196° South 474 545 29,800 -1,500 Descending Jacksonville Center
12:27PM 29.7350 -82.3114 194° South 474 545 28,400 -1,500 Descending Jacksonville Center
12:28PM 29.6097 -82.3503 195° South 469 540 26,900 -780 Descending Jacksonville Center
12:29PM 29.4761 -82.3464 179° South 469 540 26,900 -1,200 Level Jacksonville Center
12:30PM 29.3447 -82.3328 175° South 469 540 24,500 -2,580 Descending Jacksonville Center
12:31PM 29.2192 -82.3144 173° South 474 545 21,800 -2,640 Descending Jacksonville Center
12:32PM 29.0981 -82.3008 174° South 458 527 19,300 -2,520 Descending Jacksonville Center
12:33PM 28.9769 -82.2872 174° South 445 512 16,800 -2,340 Descending Jacksonville Center
12:35PM 28.7833 -82.2667 175° South 392 451 13,000 -1,620 Descending Tampa TRACON
12:35PM 28.6833 -82.2667 180° South 325 374 12,600 -900 Descending Tampa TRACON
12:36PM 28.6000 -82.2667 180° South 288 331 11,400 -1,320 Descending Tampa TRACON
12:37PM 28.5667 -82.3333 240° Southwest 301 346 10,000 -780 Descending Tampa TRACON
12:38PM 28.5333 -82.4167 246° West 296 341 10,000  Level Tampa TRACON
12:39PM 28.4833 -82.5000 236° Southwest 298 343 10,000  Level Tampa TRACON
12:40PM 28.4333 -82.5500 221° Southwest 292 336 10,000  Level Tampa TRACON
12:41PM 28.3667 -82.6000 213° Southwest 293 337 10,000 -600 Level Tampa TRACON
12:42PM 28.3000 -82.6500 213° Southwest 293 337 8,800 -1,320 Descending Tampa TRACON
12:43PM 28.2333 -82.7167 221° Southwest 285 328 7,400 -1,500 Descending Tampa TRACON
12:44PM 28.1667 -82.7667 213° Southwest 276 318 5,700 -1,200 Descending Tampa TRACON
12:45PM 28.1000 -82.7667 180° South 266 306 5,000 -900 Descending Tampa TRACON
12:46PM 28.0167 -82.7667 180° South 270 311 4,000 -1,260 Descending Tampa TRACON
12:47PM 27.9500 -82.7667 180° South 269 310 2,500 -960 Descending Tampa TRACON
12:48PM 27.8833 -82.7500 168° South 182 209 2,100 -480 Descending Tampa TRACON
12:49PM 27.8500 -82.7333 156° South 166 191 1,600 -660 Descending Tampa TRACON
12:50PM 27.8500 -82.6833 90° East 146 168 1,000 -660 Descending Tampa TRACON
12:54PM 27.9000 -82.6833 310° West  Level FlightAware Approximate
01:01PM 27.9100 -82.6875 310° West  Level Estimated